DTMB/MIR METAR and TAF weather

Enter ICAO airport designator
Station Type Date Time Source
DTMB METAR 2022/07/01 01:00 UTC NOAA

DTMB 010100Z 15003KT 8000 SCT026 26/24 Q1011


Station Type Date Time Source
DTMB Decoded METAR 2022/07/01 01:00 UTC NOAA

Habib Bourguiba , Tunisia (DTMB) 35-46N 010-45E
Jun 30, 2022 - 09:00 PM EDT / 2022.07.01 0100 UTC
Wind: from the SSE (150 degrees) at 3 MPH (3 KT):0
Visibility: 4 mile(s):0
Sky conditions: partly cloudy
Temperature: 78 F (26 C)
Dew Point: 75 F (24 C)
Relative Humidity: 88%
Pressure (altimeter): 29.85 in. Hg (1011 hPa)
ob: DTMB 010100Z 15003KT 8000 SCT026 26/24 Q1011
cycle: 1

Station Type Date Time Source
DTMB TAF 2022/06/30 18:39 UTC NOAA

TAF TAF DTMB 301700Z 3018/0118 VRB21G43KT 4000 TS FEW030CB
BECMG 3019/3021 17010KT
BECMG 3022/3024 VRB03KT
BECMG 0110/0112 12010KT

Example: see airport list